Terminal Aerodrome Forecast
Issued by NWS

Home | Current Version | Previous Version | Text Only | Print | Product List | Glossary On
Versions: 1 2 3 4 5 6 7 8 9 10 11 12
842
FTUS43 KJKL 222339
TAFSME
TAF
KSME 222339Z 2300/2324 VRB05KT P6SM VCTS SCT025 BKN040CB
      TEMPO 2300/2302 VRB25KT 2SM TSRA BKN015CB
     FM230200 VRB04KT 4SM SHRA BR VCTS BKN025CB OVC040
     FM230500 VRB03KT P6SM OVC010
     FM231300 VRB03KT P6SM SCT020 BKN035
     FM231600 VRB03KT P6SM SCT040=

USA.gov is the U.S. government's official web portal to all federal, state and local government web resources and services.